Time;durP1;ratioP1;P1;durP2;ratioP2;P2;SDS_P1;SDS_P2;PMS_P1;PMS_P2;Temp;Humidity;BMP_temperature;BMP_pressure;BME280_temperature;BME280_humidity;BME280_pressure;Samples;Min_cycle;Max_cycle;Signal;HPM_P1;HPM_P2
2022/06/01 00:01:54;;;;;;;13.15;3.00;;;;;;;;;;5051721;28;20056;-67
2022/06/01 00:04:20;;;;;;;8.48;3.08;;;;;;;;;;5051964;28;20055;-67
2022/06/01 00:06:46;;;;;;;12.57;3.30;;;;;;;;;;5051960;28;20086;-66
2022/06/01 00:09:12;;;;;;;12.00;2.78;;;;;;;;;;5051885;28;20025;-68
2022/06/01 00:11:38;;;;;;;9.13;2.38;;;;;;;;;;5051140;28;20393;-68
2022/06/01 00:14:06;;;;;;;6.57;2.53;;;;;;;;;;5051731;28;20021;-67
2022/06/01 00:16:32;;;;;;;4.68;2.13;;;;;;;;;;5051445;28;20464;-68
2022/06/01 00:18:58;;;;;;;10.68;2.90;;;;;;;;;;5051314;28;20025;-68
2022/06/01 00:21:25;;;;;;;15.50;3.22;;;;;;;;;;5051244;28;20051;-67
2022/06/01 00:23:52;;;;;;;7.60;2.60;;;;;;;;;;5051500;28;20483;-67
2022/06/01 00:26:18;;;;;;;8.88;3.05;;;;;;;;;;5051756;28;20032;-68
2022/06/01 00:28:44;;;;;;;7.95;2.70;;;;;;;;;;5051526;28;20059;-67
2022/06/01 00:31:13;;;;;;;7.03;2.67;;;;;;;;;;5051293;28;20033;-68
2022/06/01 00:33:39;;;;;;;5.07;2.45;;;;;;;;;;5051389;28;20021;-67
2022/06/01 00:36:07;;;;;;;4.93;2.33;;;;;;;;;;5051600;28;20124;-68
2022/06/01 00:38:34;;;;;;;6.35;2.60;;;;;;;;;;5051605;28;20319;-68
2022/06/01 00:41:00;;;;;;;6.28;2.60;;;;;;;;;;5051303;28;20387;-67
2022/06/01 00:43:42;;;;;;;7.95;2.65;;;;;;;;;;5051361;28;20025;-67
2022/06/01 00:46:09;;;;;;;5.10;2.50;;;;;;;;;;5051611;28;20029;-68
2022/06/01 00:48:35;;;;;;;16.75;3.42;;;;;;;;;;5051371;28;20032;-66
2022/06/01 00:51:01;;;;;;;13.68;3.28;;;;;;;;;;5051358;28;20040;-67
2022/06/01 00:53:32;;;;;;;7.43;2.72;;;;;;;;;;5051380;28;20021;-66
2022/06/01 00:56:02;;;;;;;7.63;2.50;;;;;;;;;;5051595;28;20075;-67
2022/06/01 00:58:38;;;;;;;7.32;2.67;;;;;;;;;;5051461;28;20040;-66
2022/06/01 01:01:08;;;;;;;9.70;2.45;;;;;;;;;;5051272;28;20064;-67
2022/06/01 01:03:37;;;;;;;6.28;2.65;;;;;;;;;;5051147;28;20399;-67
2022/06/01 01:06:21;;;;;;;12.27;3.17;;;;;;;;;;5050925;28;20052;-67
2022/06/01 01:08:48;;;;;;;8.65;2.80;;;;;;;;;;5051370;28;20033;-66
2022/06/01 01:11:17;;;;;;;6.78;2.40;;;;;;;;;;5051201;28;20036;-66
2022/06/01 01:13:46;;;;;;;9.38;3.08;;;;;;;;;;5051016;28;20555;-66
2022/06/01 01:16:14;;;;;;;11.23;2.80;;;;;;;;;;5051017;28;20464;-66
2022/06/01 01:18:43;;;;;;;11.15;3.30;;;;;;;;;;5051013;28;20038;-66
2022/06/01 01:21:37;;;;;;;7.28;3.00;;;;;;;;;;5050815;28;20079;-66
2022/06/01 01:24:22;;;;;;;9.80;3.17;;;;;;;;;;5052491;28;20193;-67
2022/06/01 01:26:50;;;;;;;7.90;2.83;;;;;;;;;;5054794;28;20055;-67
2022/06/01 01:29:29;;;;;;;6.45;2.75;;;;;;;;;;5054714;28;20521;-67
2022/06/01 01:31:55;;;;;;;6.57;3.00;;;;;;;;;;5054698;28;20037;-67
2022/06/01 01:34:20;;;;;;;10.10;2.97;;;;;;;;;;5054866;28;20155;-67
2022/06/01 01:36:49;;;;;;;6.65;3.25;;;;;;;;;;5054646;28;20060;-67
2022/06/01 01:39:16;;;;;;;7.95;3.17;;;;;;;;;;5054666;28;20017;-68
2022/06/01 01:41:51;;;;;;;10.02;3.30;;;;;;;;;;5054554;28;20044;-67
2022/06/01 01:44:23;;;;;;;12.95;3.15;;;;;;;;;;5069862;28;20060;-67
2022/06/01 01:46:50;;;;;;;26.13;5.20;;;;;;;;;;5054479;28;20033;-67
2022/06/01 01:49:24;;;;;;;12.57;3.30;;;;;;;;;;5054219;28;20025;-67
2022/06/01 01:51:53;;;;;;;11.85;3.38;;;;;;;;;;5101060;28;20115;-67
2022/06/01 01:54:24;;;;;;;7.38;3.00;;;;;;;;;;5074809;28;20032;-67
2022/06/01 01:57:14;;;;;;;9.98;3.10;;;;;;;;;;5074030;28;20028;-68
2022/06/01 02:00:05;;;;;;;12.98;3.42;;;;;;;;;;5075582;28;20032;-67
2022/06/01 02:02:40;;;;;;;9.70;3.08;;;;;;;;;;5075350;28;20050;-68
2022/06/01 02:08:29;;;;;;;9.63;3.33;;;;;;;;;;5075195;28;20548;-67
2022/06/01 02:14:30;;;;;;;11.18;3.22;;;;;;;;;;5073867;28;20024;-67
2022/06/01 02:17:02;;;;;;;8.23;3.30;;;;;;;;;;5073979;28;20494;-67
2022/06/01 02:19:57;;;;;;;12.43;3.88;;;;;;;;;;5074352;28;20077;-67
2022/06/01 02:22:24;;;;;;;9.98;3.28;;;;;;;;;;5073560;28;20040;-67
2022/06/01 02:24:50;;;;;;;10.88;3.72;;;;;;;;;;5073866;28;20032;-67
2022/06/01 02:27:18;;;;;;;10.45;3.60;;;;;;;;;;5073607;28;20109;-66
2022/06/01 02:29:50;;;;;;;7.15;3.58;;;;;;;;;;5073700;28;20047;-67
2022/06/01 02:32:17;;;;;;;9.80;4.40;;;;;;;;;;5073714;28;20029;-67
2022/06/01 02:34:45;;;;;;;14.45;3.78;;;;;;;;;;5073466;28;20017;-68
2022/06/01 02:37:14;;;;;;;11.90;3.42;;;;;;;;;;5072916;28;20032;-66
2022/06/01 02:39:43;;;;;;;9.18;3.97;;;;;;;;;;5073070;28;20378;-67
2022/06/01 02:42:31;;;;;;;12.82;3.83;;;;;;;;;;5072865;28;20040;-67
2022/06/01 02:45:03;;;;;;;9.98;3.70;;;;;;;;;;5072739;28;20024;-68
2022/06/01 02:47:32;;;;;;;13.63;3.78;;;;;;;;;;5073020;28;20108;-67
2022/06/01 02:49:58;;;;;;;10.18;3.58;;;;;;;;;;5072826;28;20108;-68
2022/06/01 02:52:27;;;;;;;7.10;3.45;;;;;;;;;;5073164;28;20032;-68
2022/06/01 02:54:53;;;;;;;7.07;3.13;;;;;;;;;;5073414;28;20028;-67
2022/06/01 02:57:20;;;;;;;13.93;3.95;;;;;;;;;;5073063;28;20032;-68
2022/06/01 02:59:46;;;;;;;12.95;3.72;;;;;;;;;;5072677;28;20094;-67
2022/06/01 03:02:12;;;;;;;11.90;3.85;;;;;;;;;;5072418;28;20039;-68
2022/06/01 03:04:41;;;;;;;12.55;3.85;;;;;;;;;;5072871;28;20028;-67
2022/06/01 03:07:07;;;;;;;10.98;3.75;;;;;;;;;;5072541;28;20483;-69
2022/06/01 03:09:34;;;;;;;14.25;3.75;;;;;;;;;;5072884;28;20174;-69
2022/06/01 03:12:00;;;;;;;9.25;3.72;;;;;;;;;;5072680;28;20035;-68
2022/06/01 03:14:27;;;;;;;20.38;5.47;;;;;;;;;;5075681;28;20017;-68
2022/06/01 03:16:53;;;;;;;12.65;4.30;;;;;;;;;;5092623;28;20553;-67
2022/06/01 03:19:19;;;;;;;17.20;4.72;;;;;;;;;;5092888;28;20031;-68
2022/06/01 03:21:45;;;;;;;35.28;6.68;;;;;;;;;;5092370;28;20383;-69
2022/06/01 03:24:11;;;;;;;19.40;4.80;;;;;;;;;;5092801;28;20062;-67
2022/06/01 03:26:37;;;;;;;24.55;5.28;;;;;;;;;;5092492;28;20036;-68
2022/06/01 03:29:03;;;;;;;13.05;4.35;;;;;;;;;;5092698;28;20028;-67
2022/06/01 03:31:31;;;;;;;16.60;4.50;;;;;;;;;;5089294;28;20036;-68
2022/06/01 03:33:57;;;;;;;21.88;5.07;;;;;;;;;;5092684;28;20095;-67
2022/06/01 03:36:24;;;;;;;44.03;6.95;;;;;;;;;;5092550;28;20032;-68
2022/06/01 03:38:49;;;;;;;29.40;5.78;;;;;;;;;;5092448;28;20466;-67
2022/06/01 03:41:15;;;;;;;10.88;4.00;;;;;;;;;;5092161;28;20177;-68
2022/06/01 03:46:26;;;;;;;14.73;4.28;;;;;;;;;;5091693;28;20036;-67
2022/06/01 03:48:52;;;;;;;13.25;4.75;;;;;;;;;;5091834;28;20023;-67
2022/06/01 03:51:18;;;;;;;17.15;4.82;;;;;;;;;;5091884;28;20040;-67
2022/06/01 03:53:44;;;;;;;15.50;5.10;;;;;;;;;;5091579;28;20036;-67
2022/06/01 03:56:10;;;;;;;18.35;4.53;;;;;;;;;;5090407;28;20035;-70
2022/06/01 03:58:36;;;;;;;12.27;4.07;;;;;;;;;;5091184;28;20107;-67
2022/06/01 04:01:05;;;;;;;17.73;5.25;;;;;;;;;;5083877;28;20040;-67
2022/06/01 04:03:31;;;;;;;17.55;4.82;;;;;;;;;;5086126;28;20055;-67
2022/06/01 04:05:57;;;;;;;9.38;3.58;;;;;;;;;;5092801;28;20447;-68
2022/06/01 04:08:22;;;;;;;12.52;3.90;;;;;;;;;;5086184;28;20515;-67
2022/06/01 04:10:49;;;;;;;9.63;3.35;;;;;;;;;;5076632;28;20441;-67
2022/06/01 04:13:15;;;;;;;9.73;3.33;;;;;;;;;;5086082;28;20177;-68
2022/06/01 04:15:42;;;;;;;7.93;3.20;;;;;;;;;;5090500;28;20398;-68
2022/06/01 04:18:09;;;;;;;15.88;3.45;;;;;;;;;;5092315;28;20483;-67
2022/06/01 04:20:36;;;;;;;13.00;3.47;;;;;;;;;;5092242;28;20048;-68
2022/06/01 04:23:02;;;;;;;8.35;3.40;;;;;;;;;;5092294;28;20385;-68
2022/06/01 04:25:29;;;;;;;18.80;5.68;;;;;;;;;;5092342;28;20028;-67
2022/06/01 04:27:55;;;;;;;13.40;3.67;;;;;;;;;;5088569;28;20374;-67
2022/06/01 04:30:21;;;;;;;8.70;3.95;;;;;;;;;;5091719;28;20032;-67
2022/06/01 04:32:50;;;;;;;22.05;5.20;;;;;;;;;;5091715;28;20106;-68
2022/06/01 04:35:18;;;;;;;20.10;5.47;;;;;;;;;;5092194;28;20398;-67
2022/06/01 04:37:44;;;;;;;11.40;3.70;;;;;;;;;;5091326;28;20016;-69
2022/06/01 04:40:12;;;;;;;16.50;4.95;;;;;;;;;;5091717;28;20115;-68
2022/06/01 04:42:39;;;;;;;12.65;5.20;;;;;;;;;;5091721;28;20093;-68
2022/06/01 04:45:06;;;;;;;14.60;4.75;;;;;;;;;;5093042;28;20032;-70
2022/06/01 04:47:32;;;;;;;17.15;4.40;;;;;;;;;;5095551;28;20020;-67
2022/06/01 04:49:58;;;;;;;20.50;5.10;;;;;;;;;;5091704;28;20561;-66
2022/06/01 04:52:24;;;;;;;21.20;4.95;;;;;;;;;;5076449;28;20103;-67
2022/06/01 04:54:50;;;;;;;16.67;4.53;;;;;;;;;;5071104;28;20032;-68
2022/06/01 04:57:16;;;;;;;17.02;4.90;;;;;;;;;;5071128;28;20028;-71
2022/06/01 04:59:42;;;;;;;15.60;4.68;;;;;;;;;;5089962;28;20038;-68
2022/06/01 05:02:08;;;;;;;18.20;4.57;;;;;;;;;;5095467;28;20567;-67
2022/06/01 05:04:34;;;;;;;18.20;5.30;;;;;;;;;;5094769;28;20036;-68
2022/06/01 05:07:00;;;;;;;34.10;6.30;;;;;;;;;;5095661;28;20051;-69
2022/06/01 05:09:27;;;;;;;19.30;4.90;;;;;;;;;;5094404;28;20471;-70
2022/06/01 05:11:53;;;;;;;18.50;5.13;;;;;;;;;;5095525;28;20473;-66
2022/06/01 05:14:19;;;;;;;14.68;3.90;;;;;;;;;;5095368;28;20081;-67
2022/06/01 05:16:44;;;;;;;15.15;4.60;;;;;;;;;;5095555;28;20111;-66
2022/06/01 05:19:10;;;;;;;8.68;3.13;;;;;;;;;;5095032;28;20036;-67
2022/06/01 05:21:36;;;;;;;10.25;3.47;;;;;;;;;;5088704;28;20478;-67
2022/06/01 05:24:03;;;;;;;15.98;3.70;;;;;;;;;;5080439;28;20101;-70
2022/06/01 05:26:28;;;;;;;9.50;2.90;;;;;;;;;;5074558;28;20035;-69
2022/06/01 05:28:54;;;;;;;9.27;2.40;;;;;;;;;;5074937;28;20033;-69
2022/06/01 05:31:20;;;;;;;9.30;2.28;;;;;;;;;;5074731;28;20032;-69
2022/06/01 05:33:49;;;;;;;7.47;2.47;;;;;;;;;;5075233;28;20032;-72
2022/06/01 05:36:17;;;;;;;16.67;3.83;;;;;;;;;;5074875;28;20025;-69
2022/06/01 05:38:46;;;;;;;9.57;2.60;;;;;;;;;;5074886;28;20482;-68
2022/06/01 05:41:12;;;;;;;9.05;2.45;;;;;;;;;;5074968;28;20025;-69
2022/06/01 05:43:38;;;;;;;9.85;2.65;;;;;;;;;;5075119;28;20364;-67
2022/06/01 05:46:04;;;;;;;5.85;2.60;;;;;;;;;;5074991;28;20086;-69
2022/06/01 05:48:30;;;;;;;7.38;2.95;;;;;;;;;;5074815;28;20134;-68
2022/06/01 05:50:56;;;;;;;7.03;2.67;;;;;;;;;;5074596;28;20024;-69
2022/06/01 05:53:22;;;;;;;6.55;2.40;;;;;;;;;;5074894;28;20024;-68
2022/06/01 05:55:49;;;;;;;5.57;2.42;;;;;;;;;;5074944;28;20020;-69
2022/06/01 05:58:20;;;;;;;5.40;2.92;;;;;;;;;;5082900;28;20024;-70
2022/06/01 06:00:48;;;;;;;4.90;2.40;;;;;;;;;;5094706;28;20031;-68
2022/06/01 06:03:15;;;;;;;10.52;2.90;;;;;;;;;;5094888;28;20027;-69
2022/06/01 06:08:27;;;;;;;6.45;2.42;;;;;;;;;;5094166;28;20032;-69
2022/06/01 06:10:53;;;;;;;11.80;3.10;;;;;;;;;;5093527;28;20099;-69
2022/06/01 06:13:19;;;;;;;6.60;2.20;;;;;;;;;;5094591;28;20107;-68
2022/06/01 06:15:45;;;;;;;6.50;2.65;;;;;;;;;;5094523;28;20020;-70
2022/06/01 06:18:13;;;;;;;6.30;2.35;;;;;;;;;;5094617;28;20036;-69
2022/06/01 06:20:41;;;;;;;7.43;2.50;;;;;;;;;;5079058;28;20066;-68
2022/06/01 06:23:07;;;;;;;6.93;2.88;;;;;;;;;;5075390;28;20089;-68
2022/06/01 06:25:33;;;;;;;5.20;2.58;;;;;;;;;;5073586;28;20123;-68
2022/06/01 06:27:58;;;;;;;7.50;2.25;;;;;;;;;;5074163;28;20531;-70
2022/06/01 06:30:24;;;;;;;8.10;3.53;;;;;;;;;;5074245;28;20021;-68
2022/06/01 06:32:50;;;;;;;5.40;2.30;;;;;;;;;;5084093;28;20036;-72
2022/06/01 06:35:16;;;;;;;6.43;2.20;;;;;;;;;;5093695;28;20017;-68
2022/06/01 06:37:42;;;;;;;7.05;2.20;;;;;;;;;;5096637;28;20039;-72
2022/06/01 06:40:08;;;;;;;4.20;2.20;;;;;;;;;;5094409;28;20028;-70
2022/06/01 06:42:34;;;;;;;8.80;2.47;;;;;;;;;;5094117;28;20463;-70
2022/06/01 06:45:01;;;;;;;13.73;2.38;;;;;;;;;;5094227;28;20052;-69
2022/06/01 06:47:28;;;;;;;6.88;2.30;;;;;;;;;;5093725;28;20061;-69
2022/06/01 06:49:54;;;;;;;10.80;2.80;;;;;;;;;;5091234;28;20390;-69
2022/06/01 06:52:20;;;;;;;7.35;2.30;;;;;;;;;;5073986;28;20037;-68
2022/06/01 06:54:46;;;;;;;5.95;2.30;;;;;;;;;;5073129;28;20027;-68
2022/06/01 06:57:12;;;;;;;4.85;2.35;;;;;;;;;;5072805;28;20139;-72
2022/06/01 06:59:38;;;;;;;5.95;2.20;;;;;;;;;;5073238;28;20139;-73
2022/06/01 07:02:04;;;;;;;6.55;2.50;;;;;;;;;;5073130;28;20043;-71
2022/06/01 07:04:30;;;;;;;6.78;1.90;;;;;;;;;;5073159;28;20110;-70
2022/06/01 07:06:56;;;;;;;8.55;2.30;;;;;;;;;;5073094;28;20108;-70
2022/06/01 07:09:21;;;;;;;7.70;2.10;;;;;;;;;;5072810;28;20421;-71
2022/06/01 07:11:47;;;;;;;5.25;2.10;;;;;;;;;;5072335;28;20078;-72
2022/06/01 07:14:13;;;;;;;6.45;2.67;;;;;;;;;;5072595;28;20020;-68
2022/06/01 07:16:39;;;;;;;5.65;2.13;;;;;;;;;;5073019;28;20120;-69
2022/06/01 07:19:08;;;;;;;7.47;2.45;;;;;;;;;;5072772;28;20093;-73
2022/06/01 07:21:36;;;;;;;6.18;2.28;;;;;;;;;;5071538;28;20052;-74
2022/06/01 07:24:06;;;;;;;7.97;2.40;;;;;;;;;;5072848;28;20033;-70
2022/06/01 07:26:41;;;;;;;6.45;1.98;;;;;;;;;;5072760;28;20497;-68
2022/06/01 07:29:08;;;;;;;7.05;2.10;;;;;;;;;;5072620;28;20421;-68
2022/06/01 07:31:33;;;;;;;7.80;2.15;;;;;;;;;;5070945;28;20436;-71
2022/06/01 07:34:00;;;;;;;8.93;2.38;;;;;;;;;;5080310;28;20032;-68
2022/06/01 07:36:28;;;;;;;11.60;2.38;;;;;;;;;;5092651;28;20431;-73
2022/06/01 07:44:40;;;;;;;6.32;2.13;;;;;;;;;;5092734;28;20054;-70
2022/06/01 07:47:07;;;;;;;7.07;2.75;;;;;;;;;;5092394;28;20031;-73
2022/06/01 07:49:33;;;;;;;5.35;2.55;;;;;;;;;;5092253;28;20075;-69
2022/06/01 07:51:59;;;;;;;5.38;2.10;;;;;;;;;;5092168;28;20035;-70
2022/06/01 07:54:25;;;;;;;6.30;2.30;;;;;;;;;;5091991;28;20420;-71
2022/06/01 07:56:51;;;;;;;5.68;2.33;;;;;;;;;;5092058;28;20024;-71
2022/06/01 07:59:17;;;;;;;7.78;2.50;;;;;;;;;;5092293;28;20034;-70
2022/06/01 08:01:43;;;;;;;4.00;1.98;;;;;;;;;;5091972;28;20055;-71
2022/06/01 08:04:10;;;;;;;8.50;2.70;;;;;;;;;;5092302;28;20032;-68
2022/06/01 08:06:38;;;;;;;6.65;2.10;;;;;;;;;;5083111;28;20110;-68
2022/06/01 08:09:05;;;;;;;6.22;2.38;;;;;;;;;;5077686;28;20534;-71
2022/06/01 08:15:12;;;;;;;5.03;2.45;;;;;;;;;;5092073;28;20417;-70
2022/06/01 08:17:39;;;;;;;7.30;2.42;;;;;;;;;;5091723;28;20032;-68
2022/06/01 08:20:06;;;;;;;4.88;2.20;;;;;;;;;;5091627;28;20047;-69
2022/06/01 08:22:32;;;;;;;7.97;2.53;;;;;;;;;;5092206;28;20089;-69
2022/06/01 08:24:58;;;;;;;6.32;2.20;;;;;;;;;;5092798;28;20081;-72
2022/06/01 08:27:24;;;;;;;5.35;2.40;;;;;;;;;;5092192;28;20036;-69
2022/06/01 08:29:49;;;;;;;6.18;2.58;;;;;;;;;;5092041;28;20024;-69
2022/06/01 08:32:15;;;;;;;8.57;2.35;;;;;;;;;;5090982;28;20339;-71
2022/06/01 08:34:41;;;;;;;6.85;2.20;;;;;;;;;;5091559;28;20103;-69
2022/06/01 08:37:07;;;;;;;4.50;2.03;;;;;;;;;;5091502;28;20356;-73
2022/06/01 08:39:33;;;;;;;9.88;2.90;;;;;;;;;;5091579;28;20031;-68
2022/06/01 08:42:02;;;;;;;4.63;2.03;;;;;;;;;;5091612;28;20075;-75
2022/06/01 08:44:36;;;;;;;5.50;2.53;;;;;;;;;;5091718;28;20020;-73
2022/06/01 08:47:10;;;;;;;8.75;2.90;;;;;;;;;;5091940;28;20474;-70
2022/06/01 08:49:38;;;;;;;6.82;2.17;;;;;;;;;;5092096;28;20036;-70
2022/06/01 08:52:05;;;;;;;6.65;2.20;;;;;;;;;;5091868;28;20020;-69
2022/06/01 08:54:32;;;;;;;7.32;2.17;;;;;;;;;;5091713;28;20032;-70
2022/06/01 08:57:10;;;;;;;8.98;2.80;;;;;;;;;;5091625;28;20040;-73
2022/06/01 08:59:45;;;;;;;5.05;2.15;;;;;;;;;;5091804;28;20544;-70
2022/06/01 09:02:41;;;;;;;6.40;2.33;;;;;;;;;;5091530;28;20398;-69
2022/06/01 09:05:33;;;;;;;6.90;2.30;;;;;;;;;;5091662;28;20470;-70
2022/06/01 09:08:11;;;;;;;6.32;2.30;;;;;;;;;;5085908;28;20069;-70
2022/06/01 09:11:00;;;;;;;7.07;2.00;;;;;;;;;;5091702;28;20413;-71
2022/06/01 09:13:50;;;;;;;10.52;2.67;;;;;;;;;;5090912;28;20493;-70
2022/06/01 09:16:19;;;;;;;7.03;2.22;;;;;;;;;;5059978;28;20074;-70
2022/06/01 09:18:49;;;;;;;9.90;2.90;;;;;;;;;;5091671;28;20054;-68
2022/06/01 09:24:32;;;;;;;7.53;2.25;;;;;;;;;;5091645;28;20502;-69
2022/06/01 09:26:59;;;;;;;4.97;2.17;;;;;;;;;;5091426;28;20028;-70
2022/06/01 09:29:32;;;;;;;5.10;2.40;;;;;;;;;;5091116;28;20072;-71
2022/06/01 09:32:02;;;;;;;7.05;2.35;;;;;;;;;;5091314;28;20036;-73
2022/06/01 09:34:39;;;;;;;4.32;2.00;;;;;;;;;;5091531;28;20038;-70
2022/06/01 09:37:12;;;;;;;7.32;2.08;;;;;;;;;;5091272;28;20482;-76
2022/06/01 09:39:48;;;;;;;8.98;2.20;;;;;;;;;;5090961;28;20032;-70
2022/06/01 09:42:28;;;;;;;4.85;2.35;;;;;;;;;;5087768;28;20069;-76
2022/06/01 09:44:58;;;;;;;9.13;2.53;;;;;;;;;;5072318;28;20641;-72
2022/06/01 09:47:36;;;;;;;9.85;2.10;;;;;;;;;;5074944;28;20024;-71
2022/06/01 09:50:28;;;;;;;6.32;2.00;;;;;;;;;;5074788;28;20089;-71
2022/06/01 09:53:15;;;;;;;5.70;2.35;;;;;;;;;;5069329;28;20089;-70
2022/06/01 09:56:00;;;;;;;7.55;2.20;;;;;;;;;;5074700;28;20529;-70
2022/06/01 10:06:54;;;;;;;6.03;2.08;;;;;;;;;;5074383;28;20059;-70
2022/06/01 10:09:28;;;;;;;6.03;2.03;;;;;;;;;;5074258;28;20028;-73
2022/06/01 10:11:56;;;;;;;8.30;2.55;;;;;;;;;;5073769;28;20032;-70
2022/06/01 10:14:34;;;;;;;4.40;2.10;;;;;;;;;;5073722;28;20493;-74
2022/06/01 10:17:06;;;;;;;4.93;2.15;;;;;;;;;;5073695;28;20059;-74
2022/06/01 10:19:39;;;;;;;6.07;2.20;;;;;;;;;;5078551;28;20100;-70
2022/06/01 10:22:09;;;;;;;5.18;1.98;;;;;;;;;;5074556;28;20070;-67
2022/06/01 10:24:43;;;;;;;4.85;1.75;;;;;;;;;;5073792;28;20455;-66
2022/06/01 10:27:10;;;;;;;6.35;1.70;;;;;;;;;;5073631;28;20028;-67
2022/06/01 10:29:50;;;;;;;5.40;1.80;;;;;;;;;;5073913;28;20020;-71
2022/06/01 10:32:47;;;;;;;8.63;2.30;;;;;;;;;;5073638;28;20043;-68
2022/06/01 10:35:34;;;;;;;5.30;1.95;;;;;;;;;;5073653;28;20120;-69
2022/06/01 10:38:27;;;;;;;6.65;2.70;;;;;;;;;;5073819;28;20047;-68
2022/06/01 10:41:11;;;;;;;8.23;2.10;;;;;;;;;;5073515;28;20036;-67
2022/06/01 10:43:54;;;;;;;4.40;1.83;;;;;;;;;;5073180;28;20277;-69
2022/06/01 10:46:23;;;;;;;6.90;2.10;;;;;;;;;;5073699;28;20039;-70
2022/06/01 10:49:26;;;;;;;6.30;2.08;;;;;;;;;;5073858;28;20135;-70
2022/06/01 10:52:03;;;;;;;5.38;2.13;;;;;;;;;;5073376;28;20036;-69
2022/06/01 10:54:41;;;;;;;3.10;1.60;;;;;;;;;;5073804;28;20386;-72
2022/06/01 10:57:12;;;;;;;6.60;3.22;;;;;;;;;;5073625;28;20033;-70
2022/06/01 10:59:38;;;;;;;8.93;3.00;;;;;;;;;;5073857;28;20033;-70
2022/06/01 11:02:21;;;;;;;8.70;2.00;;;;;;;;;;5073560;28;20052;-71
2022/06/01 11:05:13;;;;;;;4.88;1.98;;;;;;;;;;5073794;28;20039;-69
2022/06/01 11:08:18;;;;;;;9.70;2.10;;;;;;;;;;5073519;28;20100;-71
2022/06/01 11:11:02;;;;;;;4.22;2.00;;;;;;;;;;5073492;28;20137;-69
2022/06/01 11:13:59;;;;;;;8.35;2.08;;;;;;;;;;5073237;28;20089;-70
2022/06/01 11:16:28;;;;;;;10.50;2.60;;;;;;;;;;5073134;28;20029;-71
2022/06/01 11:19:08;;;;;;;5.40;1.67;;;;;;;;;;5073369;28;20051;-70
2022/06/01 11:22:00;;;;;;;4.10;1.90;;;;;;;;;;5075771;28;20075;-70
2022/06/01 11:24:41;;;;;;;2.53;1.85;;;;;;;;;;5090503;28;20077;-70
2022/06/01 11:27:22;;;;;;;4.35;2.25;;;;;;;;;;5093046;28;20410;-74
2022/06/01 11:30:16;;;;;;;5.95;1.98;;;;;;;;;;5086920;28;20024;-74
2022/06/01 11:32:47;;;;;;;6.28;1.90;;;;;;;;;;5079349;28;20137;-72
2022/06/01 11:35:29;;;;;;;4.32;2.03;;;;;;;;;;5092892;28;20647;-70
2022/06/01 11:38:11;;;;;;;6.28;2.28;;;;;;;;;;5093195;28;20024;-71
2022/06/01 11:40:52;;;;;;;6.13;2.37;;;;;;;;;;5091815;28;20386;-72
2022/06/01 11:43:23;;;;;;;5.60;2.15;;;;;;;;;;5092907;28;20035;-70
2022/06/01 11:45:58;;;;;;;3.88;1.92;;;;;;;;;;5090997;28;20455;-70
2022/06/01 11:48:37;;;;;;;5.93;1.80;;;;;;;;;;5078215;28;20044;-71
2022/06/01 11:51:12;;;;;;;6.00;2.10;;;;;;;;;;5087634;28;20032;-73
2022/06/01 11:53:59;;;;;;;3.75;2.10;;;;;;;;;;5092229;28;20494;-68
2022/06/01 11:56:28;;;;;;;4.72;1.98;;;;;;;;;;5092454;28;20040;-69
2022/06/01 11:59:24;;;;;;;8.50;2.47;;;;;;;;;;5092919;28;20451;-69
2022/06/01 12:02:17;;;;;;;4.78;1.90;;;;;;;;;;5089101;28;20081;-67
2022/06/01 12:05:02;;;;;;;6.38;2.30;;;;;;;;;;5075703;28;20025;-68
2022/06/01 12:07:35;;;;;;;5.50;1.80;;;;;;;;;;5076246;28;20434;-68
2022/06/01 12:10:07;;;;;;;5.85;2.38;;;;;;;;;;5082676;28;20032;-67
2022/06/01 12:12:33;;;;;;;5.57;1.98;;;;;;;;;;5082366;28;20031;-69
2022/06/01 12:15:17;;;;;;;4.80;1.90;;;;;;;;;;5084224;28;20036;-69
2022/06/01 12:18:21;;;;;;;7.95;1.98;;;;;;;;;;5071149;28;20119;-68
2022/06/01 12:21:17;;;;;;;7.65;2.35;;;;;;;;;;5044043;28;20062;-68
2022/06/01 12:30:03;;;;;;;7.43;1.95;;;;;;;;;;5091343;28;20028;-69
2022/06/01 12:32:31;;;;;;;8.50;2.03;;;;;;;;;;5083967;28;20036;-69
2022/06/01 12:35:04;;;;;;;7.80;2.10;;;;;;;;;;5082185;28;20033;-68
2022/06/01 12:37:36;;;;;;;4.53;1.77;;;;;;;;;;5091927;28;20040;-69
2022/06/01 12:40:11;;;;;;;5.32;1.85;;;;;;;;;;5082407;28;20028;-70
2022/06/01 12:42:53;;;;;;;6.47;2.05;;;;;;;;;;5091873;28;20074;-69
2022/06/01 12:45:22;;;;;;;4.72;2.08;;;;;;;;;;5090999;28;20090;-69
2022/06/01 12:48:04;;;;;;;7.13;1.85;;;;;;;;;;5091198;28;20036;-70
2022/06/01 12:50:32;;;;;;;4.87;1.80;;;;;;;;;;5071711;28;20146;-69
2022/06/01 12:53:11;;;;;;;5.13;2.17;;;;;;;;;;5071354;28;20048;-68
2022/06/01 12:55:37;;;;;;;4.65;1.60;;;;;;;;;;5072004;28;20028;-72
2022/06/01 12:58:12;;;;;;;6.68;2.03;;;;;;;;;;5090956;28;20043;-70
2022/06/01 13:00:45;;;;;;;4.23;1.83;;;;;;;;;;5091492;28;20393;-70
2022/06/01 13:03:12;;;;;;;6.05;2.00;;;;;;;;;;5088026;28;20123;-69
2022/06/01 13:05:46;;;;;;;7.22;2.33;;;;;;;;;;5090452;28;20028;-69
2022/06/01 13:08:21;;;;;;;3.78;1.92;;;;;;;;;;5092252;28;20483;-71
2022/06/01 13:10:47;;;;;;;5.63;2.22;;;;;;;;;;5090339;28;20368;-69
2022/06/01 13:13:18;;;;;;;4.00;2.30;;;;;;;;;;5092013;28;20476;-72
2022/06/01 13:16:00;;;;;;;3.58;1.90;;;;;;;;;;5089229;28;20036;-70
2022/06/01 13:18:38;;;;;;;5.23;2.10;;;;;;;;;;5091598;28;20036;-70
2022/06/01 13:21:10;;;;;;;5.50;2.05;;;;;;;;;;5094577;28;20055;-69
2022/06/01 13:23:57;;;;;;;3.72;2.00;;;;;;;;;;5095874;28;20043;-69
2022/06/01 13:26:29;;;;;;;5.40;1.75;;;;;;;;;;5095625;28;20080;-70
2022/06/01 13:29:09;;;;;;;7.57;2.10;;;;;;;;;;5095662;28;20024;-71
2022/06/01 13:31:37;;;;;;;7.55;2.05;;;;;;;;;;5093881;28;20111;-69
2022/06/01 13:34:06;;;;;;;6.68;2.35;;;;;;;;;;5088748;28;20021;-69
2022/06/01 13:36:38;;;;;;;5.25;2.40;;;;;;;;;;5094880;28;20024;-68
2022/06/01 13:39:11;;;;;;;7.60;2.15;;;;;;;;;;5095112;28;20050;-68
2022/06/01 13:41:50;;;;;;;6.20;1.88;;;;;;;;;;5093653;28;20482;-69
2022/06/01 13:44:45;;;;;;;7.40;2.40;;;;;;;;;;5095371;28;20043;-68
2022/06/01 13:47:12;;;;;;;3.45;2.30;;;;;;;;;;5095163;28;20371;-68
2022/06/01 13:49:42;;;;;;;3.72;2.00;;;;;;;;;;5095231;28;20020;-70
2022/06/01 13:52:12;;;;;;;3.15;1.90;;;;;;;;;;5093162;28;20462;-67
2022/06/01 13:54:38;;;;;;;4.97;2.00;;;;;;;;;;5093317;28;20584;-64
2022/06/01 13:57:18;;;;;;;7.18;1.92;;;;;;;;;;5084803;28;20027;-67
2022/06/01 13:59:56;;;;;;;5.10;1.90;;;;;;;;;;5077457;28;20517;-68
2022/06/01 14:02:36;;;;;;;5.05;2.00;;;;;;;;;;5076597;28;20045;-66
2022/06/01 14:05:24;;;;;;;10.23;2.10;;;;;;;;;;5089669;28;20036;-65
2022/06/01 14:08:12;;;;;;;6.10;1.95;;;;;;;;;;5087183;28;20131;-66
2022/06/01 14:10:46;;;;;;;3.50;1.80;;;;;;;;;;5075735;28;20103;-65
2022/06/01 14:13:15;;;;;;;3.80;1.67;;;;;;;;;;5073947;28;20105;-67
2022/06/01 14:15:41;;;;;;;3.63;1.83;;;;;;;;;;5088182;28;20478;-66
2022/06/01 14:18:11;;;;;;;4.75;1.92;;;;;;;;;;5091701;28;20055;-66
2022/06/01 14:20:37;;;;;;;4.88;1.92;;;;;;;;;;5092073;28;20047;-67
2022/06/01 14:23:03;;;;;;;6.35;2.17;;;;;;;;;;5091692;28;20044;-65
2022/06/01 14:28:32;;;;;;;4.00;1.60;;;;;;;;;;5091476;28;20028;-67
2022/06/01 14:31:05;;;;;;;5.28;1.88;;;;;;;;;;5090826;28;20028;-67
2022/06/01 14:33:31;;;;;;;10.40;2.20;;;;;;;;;;5090624;28;20044;-67
2022/06/01 14:35:57;;;;;;;4.80;2.03;;;;;;;;;;5092236;28;20472;-67
2022/06/01 14:38:24;;;;;;;4.70;2.03;;;;;;;;;;5093115;28;20391;-68
2022/06/01 14:40:51;;;;;;;4.32;1.70;;;;;;;;;;5074522;28;20028;-67
2022/06/01 14:43:22;;;;;;;6.03;2.13;;;;;;;;;;5083991;28;20036;-67
2022/06/01 14:45:47;;;;;;;5.72;2.20;;;;;;;;;;5093134;28;20123;-67
2022/06/01 14:48:13;;;;;;;6.07;1.58;;;;;;;;;;5093027;28;20484;-67
2022/06/01 14:50:39;;;;;;;3.75;1.63;;;;;;;;;;5091920;28;20398;-67
2022/06/01 14:53:27;;;;;;;4.57;1.80;;;;;;;;;;5093738;28;20059;-68
2022/06/01 14:55:53;;;;;;;4.18;1.48;;;;;;;;;;5094237;28;20024;-70
2022/06/01 14:58:19;;;;;;;6.93;2.33;;;;;;;;;;5093536;28;20032;-73
2022/06/01 15:00:48;;;;;;;7.38;1.98;;;;;;;;;;5093870;28;20062;-71
2022/06/01 15:03:18;;;;;;;3.35;1.77;;;;;;;;;;5091627;28;20126;-71
2022/06/01 15:05:44;;;;;;;5.22;1.75;;;;;;;;;;5093729;28;20052;-69
2022/06/01 15:08:10;;;;;;;5.32;1.88;;;;;;;;;;5093672;28;20145;-70
2022/06/01 15:10:36;;;;;;;3.92;1.77;;;;;;;;;;5093818;28;20482;-69
2022/06/01 15:13:02;;;;;;;3.75;1.67;;;;;;;;;;5087893;28;20016;-67
2022/06/01 15:15:29;;;;;;;3.67;1.85;;;;;;;;;;5073742;28;20459;-67
2022/06/01 15:17:55;;;;;;;3.40;1.40;;;;;;;;;;5073646;28;20017;-67
2022/06/01 15:20:21;;;;;;;3.83;1.60;;;;;;;;;;5073584;28;20036;-67
2022/06/01 15:22:47;;;;;;;5.47;1.90;;;;;;;;;;5073812;28;20120;-66
2022/06/01 15:25:13;;;;;;;4.18;1.60;;;;;;;;;;5073900;28;20487;-66
2022/06/01 15:27:39;;;;;;;7.32;1.73;;;;;;;;;;5073544;28;20021;-67
2022/06/01 15:41:05;;;;;;;6.88;1.92;;;;;;;;;;5072996;28;20119;-72
2022/06/01 15:43:31;;;;;;;3.88;1.80;;;;;;;;;;5072506;28;20048;-65
2022/06/01 15:45:58;;;;;;;5.53;1.92;;;;;;;;;;5072785;28;20028;-68
2022/06/01 15:48:25;;;;;;;7.93;1.58;;;;;;;;;;5072831;28;20028;-66
2022/06/01 15:50:54;;;;;;;3.25;1.60;;;;;;;;;;5072864;28;20478;-66
2022/06/01 15:53:21;;;;;;;5.80;1.65;;;;;;;;;;5074837;28;20029;-67
2022/06/01 15:55:49;;;;;;;3.78;1.40;;;;;;;;;;5073027;28;20035;-69
2022/06/01 15:58:15;;;;;;;4.47;1.73;;;;;;;;;;5073172;28;20055;-68